createdAt,value
2023-01-18T00:01:35.611Z,3.90
2023-01-18T00:04:04.649Z,3.77
2023-01-18T00:06:33.294Z,3.47
2023-01-18T00:09:04.585Z,3.53
2023-01-18T00:11:33.345Z,4.07
2023-01-18T00:14:03.980Z,3.93
2023-01-18T00:16:32.701Z,4.13
2023-01-18T00:19:02.463Z,4.20
2023-01-18T00:21:31.277Z,3.93
2023-01-18T00:23:59.968Z,3.77
2023-01-18T00:26:28.657Z,4.27
2023-01-18T00:28:58.281Z,4.20
2023-01-18T00:31:28.623Z,4.00
2023-01-18T00:33:57.395Z,4.23
2023-01-18T00:36:25.985Z,4.40
2023-01-18T00:38:55.055Z,4.50
2023-01-18T00:41:24.281Z,4.10
2023-01-18T00:43:52.863Z,4.20
2023-01-18T00:46:23.434Z,4.50
2023-01-18T00:48:54.331Z,4.20
2023-01-18T00:51:25.106Z,4.70
2023-01-18T00:53:54.015Z,4.73
2023-01-18T00:56:23.963Z,5.10
2023-01-18T00:58:52.773Z,5.10
2023-01-18T01:01:21.697Z,4.93
2023-01-18T01:04:08.157Z,4.93
2023-01-18T01:06:47.652Z,4.60
2023-01-18T01:09:19.558Z,4.47
2023-01-18T01:12:02.640Z,5.00
2023-01-18T01:14:49.435Z,5.30
2023-01-18T01:17:35.413Z,5.00
2023-01-18T01:20:22.100Z,5.10
2023-01-18T01:23:09.943Z,5.07
2023-01-18T01:25:56.428Z,4.80
2023-01-18T01:28:25.461Z,5.10
2023-01-18T01:30:58.670Z,5.10
2023-01-18T01:33:27.550Z,4.90
2023-01-18T01:35:58.052Z,5.30
2023-01-18T01:38:28.386Z,5.20
2023-01-18T01:40:58.810Z,5.60
2023-01-18T01:43:42.847Z,5.80
2023-01-18T01:46:24.400Z,5.43
2023-01-18T01:49:05.129Z,5.53
2023-01-18T01:51:39.484Z,5.80
2023-01-18T01:54:14.768Z,5.97
2023-01-18T01:56:45.593Z,5.80
2023-01-18T01:59:15.573Z,5.60
2023-01-18T02:01:48.107Z,5.50
2023-01-18T02:04:17.340Z,5.63
2023-01-18T02:06:46.353Z,5.37
2023-01-18T02:09:19.187Z,4.73
2023-01-18T02:11:48.255Z,5.20
2023-01-18T02:14:17.896Z,4.83
2023-01-18T02:16:58.249Z,5.20
2023-01-18T02:20:09.459Z,5.43
2023-01-18T02:22:59.195Z,5.30
2023-01-18T02:25:52.930Z,5.10
2023-01-18T02:28:26.277Z,4.87
2023-01-18T02:31:02.677Z,5.50
2023-01-18T02:33:38.724Z,5.27
2023-01-18T02:36:08.076Z,5.80
2023-01-18T02:38:44.439Z,5.40
2023-01-18T02:41:19.381Z,5.67
2023-01-18T02:44:21.243Z,5.67
2023-01-18T02:46:50.101Z,5.63
2023-01-18T02:49:23.879Z,5.93
2023-01-18T02:52:02.374Z,5.40
2023-01-18T02:54:33.267Z,5.97
2023-01-18T02:57:05.837Z,5.63
2023-01-18T02:59:40.523Z,5.60
2023-01-18T03:02:14.251Z,6.10
2023-01-18T03:04:54.482Z,5.83
2023-01-18T03:07:27.930Z,6.00
2023-01-18T03:09:57.738Z,5.90
2023-01-18T03:12:46.267Z,5.97
2023-01-18T03:15:23.662Z,5.80
2023-01-18T03:17:54.711Z,5.77
2023-01-18T03:20:26.717Z,5.40
2023-01-18T03:23:31.681Z,5.60
2023-01-18T03:26:03.263Z,5.50
2023-01-18T03:28:53.248Z,5.47
2023-01-18T03:31:45.761Z,5.57
2023-01-18T03:34:22.673Z,6.00
2023-01-18T03:36:55.021Z,5.57
2023-01-18T03:39:28.712Z,5.70
2023-01-18T03:42:01.188Z,5.90
2023-01-18T03:44:36.814Z,5.97
2023-01-18T03:47:09.005Z,6.17
2023-01-18T03:49:38.394Z,6.13
2023-01-18T03:52:17.909Z,5.53
2023-01-18T03:54:57.155Z,5.50
2023-01-18T03:57:34.693Z,6.00
2023-01-18T04:00:06.285Z,6.27
2023-01-18T04:02:45.002Z,5.73
2023-01-18T04:05:14.009Z,5.63
2023-01-18T04:07:43.202Z,5.57
2023-01-18T04:10:13.768Z,5.40
2023-01-18T04:12:43.155Z,5.70
2023-01-18T04:15:12.921Z,5.70
2023-01-18T04:17:43.385Z,5.43
2023-01-18T04:20:12.821Z,5.47
2023-01-18T04:22:41.666Z,5.30
2023-01-18T04:25:11.080Z,5.63
2023-01-18T04:27:39.966Z,5.63
2023-01-18T04:30:10.115Z,4.87
2023-01-18T04:32:39.154Z,5.17
2023-01-18T04:35:10.250Z,5.13
2023-01-18T04:37:39.403Z,4.93
2023-01-18T04:40:09.334Z,5.30
2023-01-18T04:42:38.139Z,5.20
2023-01-18T04:45:08.058Z,5.37
2023-01-18T04:47:36.797Z,5.00
2023-01-18T04:50:06.619Z,5.20
2023-01-18T04:52:36.791Z,5.70
2023-01-18T04:55:05.977Z,5.07
2023-01-18T04:57:35.065Z,5.80
2023-01-18T05:00:03.875Z,5.20
2023-01-18T05:02:32.653Z,5.40
2023-01-18T05:05:01.352Z,5.37
2023-01-18T05:07:31.536Z,5.20
2023-01-18T05:10:01.938Z,4.87
2023-01-18T05:12:31.117Z,4.83
2023-01-18T05:14:59.896Z,4.70
2023-01-18T05:17:30.608Z,5.17
2023-01-18T05:20:00.597Z,5.17
2023-01-18T05:22:33.075Z,4.93
2023-01-18T05:25:03.548Z,5.50
2023-01-18T05:27:32.313Z,5.20
2023-01-18T05:30:02.109Z,4.40
2023-01-18T05:32:30.908Z,4.90
2023-01-18T05:34:59.783Z,4.70
2023-01-18T05:37:33.619Z,4.57
2023-01-18T05:40:04.237Z,5.03
2023-01-18T05:42:32.933Z,5.03
2023-01-18T05:45:01.710Z,4.67
2023-01-18T05:47:30.367Z,4.90
2023-01-18T05:50:00.692Z,5.47
2023-01-18T05:52:29.522Z,5.83
2023-01-18T05:54:58.176Z,5.43
2023-01-18T05:57:28.431Z,5.30
2023-01-18T05:59:57.269Z,5.50
2023-01-18T06:02:26.438Z,5.70
2023-01-18T06:04:55.234Z,5.87
2023-01-18T06:07:24.009Z,5.60
2023-01-18T06:09:52.768Z,6.13
2023-01-18T06:12:21.947Z,5.73
2023-01-18T06:14:52.318Z,5.57
2023-01-18T06:17:21.082Z,6.07
2023-01-18T06:19:49.872Z,6.17
2023-01-18T06:22:18.690Z,7.17
2023-01-18T06:24:47.506Z,6.57
2023-01-18T06:27:16.465Z,6.73
2023-01-18T06:29:45.180Z,7.87
2023-01-18T06:32:15.597Z,7.77
2023-01-18T06:34:44.455Z,8.10
2023-01-18T06:37:13.468Z,8.67
2023-01-18T06:39:42.410Z,8.93
2023-01-18T06:42:11.274Z,8.57
2023-01-18T06:44:41.154Z,8.93
2023-01-18T06:47:11.006Z,8.73
2023-01-18T06:49:41.260Z,9.77
2023-01-18T06:52:10.155Z,9.40
2023-01-18T06:54:38.964Z,9.50
2023-01-18T06:57:07.891Z,9.60
2023-01-18T06:59:36.663Z,9.30
2023-01-18T07:02:06.157Z,9.40
2023-01-18T07:04:38.085Z,9.30
2023-01-18T07:07:08.558Z,9.30
2023-01-18T07:09:43.401Z,9.03
2023-01-18T07:12:22.682Z,9.90
2023-01-18T07:14:51.556Z,8.67
2023-01-18T07:17:20.449Z,9.30
2023-01-18T07:19:49.305Z,9.27
2023-01-18T07:22:19.797Z,9.93
2023-01-18T07:24:48.749Z,10.40
2023-01-18T07:27:17.602Z,9.87
2023-01-18T07:29:48.169Z,10.37
2023-01-18T07:32:18.451Z,11.00
2023-01-18T07:34:47.303Z,11.43
2023-01-18T07:37:16.362Z,10.63
2023-01-18T07:39:46.875Z,10.57
2023-01-18T07:42:16.062Z,11.13
2023-01-18T07:44:45.184Z,12.10
2023-01-18T07:47:41.141Z,11.73
2023-01-18T07:50:11.473Z,12.33
2023-01-18T07:52:40.093Z,11.63
2023-01-18T07:55:14.197Z,11.67
2023-01-18T07:57:45.539Z,12.67
2023-01-18T08:00:18.471Z,12.27
2023-01-18T08:02:52.158Z,12.60
2023-01-18T08:05:24.297Z,12.77
2023-01-18T08:07:53.898Z,12.40
2023-01-18T08:10:29.966Z,12.00
2023-01-18T08:12:59.620Z,12.40
2023-01-18T08:15:30.329Z,12.83
2023-01-18T08:18:02.847Z,13.37
2023-01-18T08:20:32.262Z,13.03
2023-01-18T08:23:02.704Z,13.53
2023-01-18T08:25:35.652Z,12.57
2023-01-18T08:28:14.720Z,12.77
2023-01-18T08:30:49.772Z,11.90
2023-01-18T08:33:21.173Z,11.83
2023-01-18T08:35:50.163Z,12.00
2023-01-18T08:38:19.274Z,11.20
2023-01-18T08:40:49.735Z,10.87
2023-01-18T08:43:18.639Z,10.87
2023-01-18T08:45:51.921Z,11.30
2023-01-18T08:48:20.896Z,11.70
2023-01-18T08:50:52.806Z,12.33
2023-01-18T08:53:22.275Z,13.00
2023-01-18T08:55:53.001Z,12.97
2023-01-18T08:58:24.604Z,13.27
2023-01-18T09:00:54.331Z,12.37
2023-01-18T09:03:25.357Z,12.43
2023-01-18T09:05:54.520Z,12.97
2023-01-18T09:08:23.701Z,11.83
2023-01-18T09:10:54.484Z,11.70
2023-01-18T09:13:59.403Z,11.20
2023-01-18T09:16:39.935Z,10.70
2023-01-18T09:19:14.439Z,10.97
2023-01-18T09:21:54.779Z,10.70
2023-01-18T09:24:23.884Z,11.50
2023-01-18T09:26:57.878Z,10.70
2023-01-18T09:29:27.157Z,11.93
2023-01-18T09:31:56.285Z,10.40
2023-01-18T09:34:25.917Z,12.77
2023-01-18T09:36:55.624Z,12.50
2023-01-18T09:39:24.824Z,12.90
2023-01-18T09:41:59.261Z,12.67
2023-01-18T09:44:32.563Z,11.33
2023-01-18T09:47:05.330Z,12.70
2023-01-18T09:49:38.485Z,13.20
2023-01-18T09:52:39.437Z,10.50
2023-01-18T09:55:18.379Z,12.67
2023-01-18T09:58:06.228Z,11.73
2023-01-18T10:00:38.413Z,14.23
2023-01-18T10:03:15.792Z,13.63
2023-01-18T10:05:54.515Z,12.33
2023-01-18T10:08:26.991Z,12.53
2023-01-18T10:11:01.566Z,13.03
2023-01-18T10:13:44.517Z,11.80
2023-01-18T10:16:20.303Z,11.60
2023-01-18T10:18:56.489Z,14.23
2023-01-18T10:21:38.647Z,12.90
2023-01-18T10:24:29.046Z,12.53
2023-01-18T10:27:11.138Z,12.60
2023-01-18T10:29:53.532Z,11.93
2023-01-18T10:32:24.886Z,11.80
2023-01-18T10:34:55.131Z,12.20
2023-01-18T10:37:35.925Z,12.13
2023-01-18T10:40:09.834Z,12.20
2023-01-18T10:42:48.713Z,12.40
2023-01-18T10:45:32.672Z,11.83
2023-01-18T10:48:29.610Z,11.90
2023-01-18T10:51:02.597Z,11.37
2023-01-18T10:53:33.755Z,10.73
2023-01-18T10:56:05.738Z,13.53
2023-01-18T10:58:39.606Z,10.67
2023-01-18T11:01:15.468Z,10.93
2023-01-18T11:03:48.985Z,9.90
2023-01-18T11:06:20.692Z,9.00
2023-01-18T11:08:51.003Z,9.03
2023-01-18T11:11:50.339Z,8.80
2023-01-18T11:14:33.516Z,9.30
2023-01-18T11:17:11.748Z,9.40
2023-01-18T11:19:41.756Z,7.70
2023-01-18T11:22:14.031Z,7.10
2023-01-18T11:24:42.899Z,7.23
2023-01-18T11:27:37.736Z,7.40
2023-01-18T11:30:21.223Z,7.33
2023-01-18T11:32:53.163Z,6.17
2023-01-18T11:35:29.381Z,7.20
2023-01-18T11:38:01.673Z,6.60
2023-01-18T11:41:17.314Z,7.30
2023-01-18T11:44:04.943Z,6.97
2023-01-18T11:46:41.537Z,6.43
2023-01-18T11:49:23.293Z,6.67
2023-01-18T11:51:55.559Z,6.70
2023-01-18T11:54:31.852Z,7.30
2023-01-18T11:57:03.069Z,7.00
2023-01-18T11:59:36.105Z,7.43
2023-01-18T12:06:54.808Z,7.47
2023-01-18T12:10:04.195Z,6.67
2023-01-18T12:13:20.500Z,8.20
2023-01-18T12:18:11.736Z,7.30
2023-01-18T12:21:01.260Z,7.13
2023-01-18T12:24:01.168Z,8.60
2023-01-18T12:26:48.231Z,7.73
2023-01-18T12:29:39.006Z,7.83
2023-01-18T12:32:30.714Z,7.63
2023-01-18T12:35:24.605Z,7.90
2023-01-18T12:38:02.272Z,8.07
2023-01-18T12:40:44.905Z,8.03
2023-01-18T12:43:35.599Z,8.43
2023-01-18T12:46:09.334Z,8.43
2023-01-18T12:48:47.014Z,9.90
2023-01-18T12:51:18.289Z,10.20
2023-01-18T12:53:50.952Z,10.47
2023-01-18T12:56:26.188Z,9.93
2023-01-18T12:58:57.932Z,11.03
2023-01-18T13:01:30.850Z,12.17
2023-01-18T13:04:03.442Z,11.80
2023-01-18T13:06:35.253Z,11.30
2023-01-18T13:09:06.758Z,11.33
2023-01-18T13:11:41.734Z,10.97
2023-01-18T13:14:17.618Z,10.80
2023-01-18T13:16:52.441Z,11.40
2023-01-18T13:19:26.074Z,10.50
2023-01-18T13:22:06.069Z,12.03
2023-01-18T13:24:46.895Z,10.43
2023-01-18T13:27:20.146Z,10.77
2023-01-18T13:29:49.259Z,10.80
2023-01-18T13:32:29.412Z,10.67
2023-01-18T13:35:18.534Z,10.17
2023-01-18T13:37:51.077Z,10.67
2023-01-18T13:40:29.150Z,10.83
2023-01-18T13:42:59.906Z,10.37
2023-01-18T13:45:30.571Z,10.80
2023-01-18T13:48:05.199Z,10.10
2023-01-18T13:50:42.435Z,11.43
2023-01-18T13:53:48.057Z,10.23
2023-01-18T13:56:28.519Z,10.47
2023-01-18T13:59:02.924Z,9.77
2023-01-18T14:01:36.883Z,9.20
2023-01-18T14:04:26.500Z,11.03
2023-01-18T14:06:58.823Z,9.43
2023-01-18T14:09:36.794Z,8.87
2023-01-18T14:12:08.584Z,8.70
2023-01-18T14:14:55.039Z,8.63
2023-01-18T14:17:28.805Z,7.77
2023-01-18T14:20:39.528Z,8.30
2023-01-18T14:23:56.012Z,8.23
2023-01-18T14:26:30.385Z,10.53
2023-01-18T14:29:01.905Z,8.03
2023-01-18T14:31:35.333Z,7.63
2023-01-18T14:34:26.636Z,7.10
2023-01-18T14:36:56.654Z,7.43
2023-01-18T14:39:25.811Z,7.67
2023-01-18T14:41:58.587Z,7.70
2023-01-18T14:44:33.630Z,7.43
2023-01-18T14:47:24.025Z,7.33
2023-01-18T14:49:57.708Z,7.80
2023-01-18T14:52:31.789Z,7.50
2023-01-18T14:55:00.589Z,8.20
2023-01-18T14:57:29.375Z,8.00
2023-01-18T15:00:10.185Z,7.80
2023-01-18T15:02:41.004Z,8.07
2023-01-18T15:05:13.637Z,7.57
2023-01-18T15:08:09.601Z,6.57
2023-01-18T15:10:39.377Z,7.43
2023-01-18T15:13:08.279Z,7.63
2023-01-18T15:15:42.416Z,7.00
2023-01-18T15:18:21.080Z,8.30
2023-01-18T15:20:56.768Z,7.73
2023-01-18T15:23:28.164Z,7.30
2023-01-18T15:25:59.123Z,7.80
2023-01-18T15:28:34.153Z,7.87
2023-01-18T15:31:09.768Z,8.07
2023-01-18T15:33:41.283Z,7.37
2023-01-18T15:36:11.766Z,7.90
2023-01-18T15:39:06.187Z,7.83
2023-01-18T15:41:35.167Z,7.63
2023-01-18T15:44:04.331Z,7.67
2023-01-18T15:46:39.958Z,8.40
2023-01-18T15:49:15.173Z,7.60
2023-01-18T15:51:56.575Z,8.67
2023-01-18T15:54:27.942Z,9.07
2023-01-18T15:57:00.106Z,9.83
2023-01-18T15:59:29.465Z,13.20
2023-01-18T16:02:18.774Z,12.23
2023-01-18T16:04:50.060Z,10.13
2023-01-18T16:07:36.696Z,10.43
2023-01-18T16:10:30.657Z,9.43
2023-01-18T16:13:33.785Z,9.83
2023-01-18T16:16:14.435Z,8.97
2023-01-18T16:18:47.381Z,9.37
2023-01-18T16:21:40.677Z,9.40
2023-01-18T16:24:27.466Z,9.10
2023-01-18T16:26:57.443Z,9.00
2023-01-18T16:29:26.561Z,10.20
2023-01-18T16:32:31.323Z,9.13
2023-01-18T16:35:03.051Z,8.40
2023-01-18T16:37:33.080Z,8.53
2023-01-18T16:40:01.901Z,9.63
2023-01-18T16:42:38.158Z,9.77
2023-01-18T16:45:13.888Z,9.60
2023-01-18T16:47:45.774Z,10.17
2023-01-18T16:50:16.271Z,8.70
2023-01-18T16:52:46.578Z,9.23
2023-01-18T16:55:16.351Z,8.40
2023-01-18T16:57:46.155Z,10.00
2023-01-18T17:00:19.286Z,9.47
2023-01-18T17:02:48.097Z,10.93
2023-01-18T17:05:17.650Z,10.63
2023-01-18T17:07:48.130Z,9.80
2023-01-18T17:10:26.304Z,11.13
2023-01-18T17:12:55.398Z,9.73
2023-01-18T17:15:28.441Z,10.17
2023-01-18T17:17:57.588Z,9.73
2023-01-18T17:20:31.440Z,9.30
2023-01-18T17:23:02.361Z,10.33
2023-01-18T17:25:31.504Z,10.10
2023-01-18T17:28:01.169Z,8.77
2023-01-18T17:30:30.268Z,10.27
2023-01-18T17:33:03.343Z,10.40
2023-01-18T17:35:33.226Z,10.10
2023-01-18T17:38:11.421Z,10.60
2023-01-18T17:40:45.661Z,11.43
2023-01-18T17:43:22.121Z,9.77
2023-01-18T17:46:00.684Z,10.93
2023-01-18T17:48:31.073Z,11.63
2023-01-18T17:50:59.933Z,10.63
2023-01-18T17:53:30.282Z,11.80
2023-01-18T17:56:06.983Z,9.70
2023-01-18T17:58:35.885Z,10.10
2023-01-18T18:01:10.579Z,10.13
2023-01-18T18:03:39.581Z,10.40
2023-01-18T18:06:09.988Z,8.03
2023-01-18T18:08:41.453Z,9.57
2023-01-18T18:11:11.732Z,9.47
2023-01-18T18:13:42.811Z,8.90
2023-01-18T18:16:18.312Z,7.83
2023-01-18T18:18:47.403Z,8.37
2023-01-18T18:21:16.842Z,8.57
2023-01-18T18:23:48.144Z,8.30
2023-01-18T18:26:17.052Z,7.60
2023-01-18T18:28:46.061Z,8.03
2023-01-18T18:31:16.370Z,7.93
2023-01-18T18:33:45.272Z,8.40
2023-01-18T18:37:06.274Z,8.27
2023-01-18T18:39:36.595Z,8.83
2023-01-18T18:42:05.691Z,9.47
2023-01-18T18:44:34.550Z,8.47
2023-01-18T18:47:04.873Z,8.33
2023-01-18T18:49:34.261Z,8.17
2023-01-18T18:52:02.948Z,8.23
2023-01-18T18:54:31.764Z,7.97
2023-01-18T18:57:03.438Z,8.30
2023-01-18T18:59:32.151Z,8.70
2023-01-18T19:02:00.906Z,7.97
2023-01-18T19:04:55.916Z,8.50
2023-01-18T19:07:24.657Z,7.73
2023-01-18T19:09:53.656Z,8.53
2023-01-18T19:12:23.790Z,8.63
2023-01-18T19:14:52.426Z,8.50
2023-01-18T19:17:29.793Z,8.73
2023-01-18T19:19:59.403Z,9.03
2023-01-18T19:22:28.116Z,9.50
2023-01-18T19:24:56.750Z,9.33
2023-01-18T19:27:27.241Z,8.70
2023-01-18T19:29:57.064Z,10.40
2023-01-18T19:32:26.187Z,10.20
2023-01-18T19:34:55.140Z,10.50
2023-01-18T19:37:23.898Z,10.00
2023-01-18T19:39:52.507Z,10.37
2023-01-18T19:42:21.205Z,9.97
2023-01-18T19:44:53.907Z,10.30
2023-01-18T19:47:27.416Z,11.20
2023-01-18T19:49:57.492Z,10.70
2023-01-18T19:52:26.402Z,10.80
2023-01-18T19:54:55.135Z,11.20
2023-01-18T19:57:24.532Z,10.87
2023-01-18T19:59:54.681Z,10.90
2023-01-18T20:02:24.787Z,11.07
2023-01-18T20:04:53.662Z,10.83
2023-01-18T20:07:22.401Z,10.53
2023-01-18T20:09:51.133Z,10.70
2023-01-18T20:12:20.012Z,10.33
2023-01-18T20:14:51.234Z,10.13
2023-01-18T20:17:21.907Z,9.97
2023-01-18T20:19:54.452Z,9.77
2023-01-18T20:22:26.793Z,9.33
2023-01-18T20:24:55.761Z,10.20
2023-01-18T20:27:24.607Z,9.60
2023-01-18T20:29:53.485Z,10.53
2023-01-18T20:32:24.133Z,10.83
2023-01-18T20:34:53.250Z,10.60
2023-01-18T20:37:21.895Z,10.33
2023-01-18T20:39:51.062Z,11.63
2023-01-18T20:42:19.769Z,10.83
2023-01-18T20:44:50.389Z,11.03
2023-01-18T20:47:19.144Z,11.17
2023-01-18T20:49:49.161Z,10.87
2023-01-18T20:52:17.762Z,10.53
2023-01-18T20:54:46.391Z,9.77
2023-01-18T20:57:15.314Z,9.97
2023-01-18T20:59:43.990Z,10.77
2023-01-18T21:02:12.812Z,11.53
2023-01-18T21:04:41.719Z,11.27
2023-01-18T21:07:11.936Z,11.80
2023-01-18T21:09:40.629Z,11.40
2023-01-18T21:12:09.433Z,11.53
2023-01-18T21:14:38.210Z,12.17
2023-01-18T21:17:07.014Z,12.90
2023-01-18T21:19:35.822Z,12.33
2023-01-18T21:22:04.613Z,12.60
2023-01-18T21:24:34.792Z,12.83
2023-01-18T21:27:03.448Z,12.77
2023-01-18T21:29:32.384Z,12.63
2023-01-18T21:32:01.550Z,12.57
2023-01-18T21:34:30.341Z,12.97
2023-01-18T21:36:59.004Z,13.50
2023-01-18T21:39:28.567Z,13.03
2023-01-18T21:42:16.465Z,13.20
2023-01-18T21:45:02.876Z,13.00
2023-01-18T21:47:31.685Z,13.73
2023-01-18T21:50:18.638Z,13.53
2023-01-18T21:53:04.838Z,13.80
2023-01-18T21:55:33.615Z,15.47
2023-01-18T21:58:21.324Z,13.53
2023-01-18T22:00:50.047Z,13.07
2023-01-18T22:03:21.302Z,12.63
2023-01-18T22:05:50.376Z,14.37
2023-01-18T22:08:19.340Z,13.83
2023-01-18T22:10:48.272Z,14.47
2023-01-18T22:13:18.284Z,14.03
2023-01-18T22:15:46.896Z,14.23
2023-01-18T22:18:15.588Z,13.60
2023-01-18T22:20:44.325Z,14.80
2023-01-18T22:23:12.949Z,14.40
2023-01-18T22:25:43.592Z,14.93
2023-01-18T22:28:13.042Z,14.40
2023-01-18T22:30:43.238Z,14.57
2023-01-18T22:33:11.827Z,14.97
2023-01-18T22:35:40.436Z,14.80
2023-01-18T22:38:09.789Z,15.63
2023-01-18T22:40:38.474Z,14.63
2023-01-18T22:43:10.016Z,14.93
2023-01-18T22:45:38.627Z,14.73
2023-01-18T22:48:08.830Z,14.90
2023-01-18T22:50:37.472Z,14.83
2023-01-18T22:53:06.026Z,15.77
2023-01-18T22:55:34.925Z,14.77
2023-01-18T22:58:03.995Z,13.93
2023-01-18T23:00:32.769Z,14.07
2023-01-18T23:03:01.489Z,14.97
2023-01-18T23:05:32.113Z,14.20
2023-01-18T23:08:01.211Z,15.13
2023-01-18T23:10:30.007Z,14.83
2023-01-18T23:12:58.766Z,15.23
2023-01-18T23:15:44.916Z,15.23
2023-01-18T23:18:13.725Z,15.30
2023-01-18T23:20:43.815Z,14.90
2023-01-18T23:23:12.440Z,16.27
2023-01-18T23:25:41.099Z,15.73
2023-01-18T23:28:09.821Z,15.53
2023-01-18T23:30:38.498Z,16.27
2023-01-18T23:33:07.100Z,15.43
2023-01-18T23:35:35.723Z,15.23
2023-01-18T23:38:06.528Z,16.37
2023-01-18T23:40:52.308Z,16.07
2023-01-18T23:43:38.513Z,16.27
2023-01-18T23:46:24.822Z,14.80
2023-01-18T23:49:10.774Z,15.77
2023-01-18T23:51:56.879Z,16.43
2023-01-18T23:54:26.879Z,17.00
2023-01-18T23:56:57.933Z,17.50
2023-01-18T23:59:26.976Z,16.43
